Time;durP1;ratioP1;P1;durP2;ratioP2;P2;SDS_P1;SDS_P2;PMS_P1;PMS_P2;Temp;Humidity;BMP_temperature;BMP_pressure;BME280_temperature;BME280_humidity;BME280_pressure;Samples;Min_cycle;Max_cycle;Signal;HPM_P1;HPM_P2
2022/05/24 00:00:14;;;;;;;2.60;2.40;;;23.10;52.10;;;;;;5073120;28;21207;-87
2022/05/24 00:02:41;;;;;;;2.47;2.23;;;23.00;51.90;;;;;;5090128;28;20439;-87
2022/05/24 00:05:15;;;;;;;2.30;1.97;;;23.10;51.80;;;;;;5076022;28;20474;-85
2022/05/24 00:07:42;;;;;;;2.40;1.77;;;23.10;51.70;;;;;;5070046;28;20966;-87
2022/05/24 00:10:16;;;;;;;1.80;1.70;;;23.10;51.50;;;;;;5087594;28;20482;-86
2022/05/24 00:12:43;;;;;;;2.70;2.10;;;23.00;50.70;;;;;;5078640;28;20452;-87
2022/05/24 00:15:20;;;;;;;1.97;1.87;;;22.90;51.50;;;;;;5090533;28;20470;-87
2022/05/24 00:17:51;;;;;;;2.20;2.00;;;22.70;51.90;;;;;;5075768;28;20446;-86
2022/05/24 00:20:18;;;;;;;2.17;1.90;;;22.70;52.50;;;;;;5075692;28;20503;-87
2022/05/24 00:22:45;;;;;;;1.97;1.67;;;22.80;53.00;;;;;;5083695;28;20455;-87
2022/05/24 00:25:14;;;;;;;1.73;1.63;;;22.80;52.20;;;;;;5071049;28;20458;-86
2022/05/24 00:27:41;;;;;;;3.00;1.83;;;22.60;52.60;;;;;;5072800;28;21003;-87
2022/05/24 00:30:09;;;;;;;2.00;1.90;;;22.50;52.40;;;;;;5056406;28;20837;-86
2022/05/24 00:32:36;;;;;;;1.80;1.70;;;22.50;52.70;;;;;;5076331;28;20460;-87
2022/05/24 00:35:04;;;;;;;2.33;2.13;;;22.40;52.00;;;;;;5074374;28;21037;-89
2022/05/24 00:37:32;;;;;;;2.07;1.87;;;22.20;52.10;;;;;;5057519;28;20436;-85
2022/05/24 00:40:01;;;;;;;1.90;1.80;;;22.30;52.40;;;;;;5047231;28;20518;-87
2022/05/24 00:42:32;;;;;;;1.90;1.63;;;22.10;52.10;;;;;;5083099;28;21066;-87
2022/05/24 00:45:05;;;;;;;2.03;1.80;;;22.20;52.30;;;;;;5089161;28;20806;-87
2022/05/24 00:47:37;;;;;;;4.87;2.03;;;22.30;52.30;;;;;;5071566;28;20538;-88
2022/05/24 00:50:08;;;;;;;2.10;1.90;;;22.30;51.60;;;;;;5073006;28;20474;-88
2022/05/24 00:52:45;;;;;;;2.27;2.07;;;22.30;51.40;;;;;;5092985;28;20530;-87
2022/05/24 00:55:15;;;;;;;2.17;1.97;;;22.40;51.40;;;;;;5060017;28;20470;-88
2022/05/24 00:57:50;;;;;;;2.13;2.00;;;22.30;51.20;;;;;;5091321;28;20448;-87
2022/05/24 01:00:19;;;;;;;1.70;1.60;;;22.10;51.60;;;;;;5068829;28;20454;-87
2022/05/24 01:02:46;;;;;;;2.23;2.03;;;21.90;51.90;;;;;;5058595;28;20436;-87
2022/05/24 01:05:15;;;;;;;1.90;1.80;;;21.80;52.30;;;;;;5074252;28;20554;-87
2022/05/24 01:07:42;;;;;;;2.20;2.10;;;21.70;52.20;;;;;;5074760;28;20998;-86
2022/05/24 01:10:12;;;;;;;2.20;1.70;;;21.90;52.00;;;;;;5063363;28;20468;-87
2022/05/24 01:12:44;;;;;;;4.80;1.90;;;22.00;51.70;;;;;;5090442;28;20450;-87
2022/05/24 01:15:15;;;;;;;2.80;2.03;;;22.10;51.50;;;;;;5067720;28;20463;-87
2022/05/24 01:17:42;;;;;;;4.27;1.83;;;21.90;51.60;;;;;;5066143;28;20435;-87
2022/05/24 01:20:11;;;;;;;2.87;1.70;;;21.90;51.80;;;;;;5075268;28;20430;-87
2022/05/24 01:23:08;;;;;;;1.67;1.47;;;21.80;52.10;;;;;;5074195;28;20466;-87
2022/05/24 01:25:41;;;;;;;1.70;1.60;;;22.10;51.60;;;;;;5071414;28;20557;-88
2022/05/24 01:28:14;;;;;;;1.97;1.73;;;22.20;51.40;;;;;;5080845;28;20455;-87
2022/05/24 01:30:41;;;;;;;2.10;1.97;;;22.20;51.30;;;;;;5072660;28;20492;-88
2022/05/24 01:36:11;;;;;;;1.70;1.60;;;22.40;51.10;;;;;;5060804;28;21117;-87
2022/05/24 01:38:40;;;;;;;2.90;2.10;;;22.40;50.40;;;;;;5066399;28;20436;-87
2022/05/24 01:41:08;;;;;;;1.60;1.50;;;22.40;50.30;;;;;;5072848;28;20524;-88
2022/05/24 01:43:38;;;;;;;2.07;1.97;;;22.60;50.40;;;;;;5065737;28;20439;-86
2022/05/24 01:46:10;;;;;;;1.93;1.83;;;22.50;50.20;;;;;;5057132;28;20467;-89
2022/05/24 01:48:42;;;;;;;2.50;1.70;;;22.50;50.00;;;;;;5058249;28;20529;-86
2022/05/24 01:51:12;;;;;;;4.23;1.90;;;22.40;50.30;;;;;;5071275;28;20521;-87
2022/05/24 01:53:43;;;;;;;1.83;1.63;;;22.40;50.40;;;;;;5076393;28;20436;-87
2022/05/24 01:56:16;;;;;;;1.60;1.50;;;22.30;50.20;;;;;;5066128;28;20525;-87
2022/05/24 01:58:49;;;;;;;2.13;1.83;;;22.50;50.30;;;;;;5092587;28;20836;-87
2022/05/24 02:01:24;;;;;;;1.80;1.70;;;22.60;49.90;;;;;;5057900;28;20909;-86
2022/05/24 02:03:51;;;;;;;2.23;2.00;;;22.70;50.00;;;;;;5089248;28;21448;-87
2022/05/24 02:06:21;;;;;;;1.83;1.73;;;22.80;49.70;;;;;;5069940;28;20475;-87
2022/05/24 02:08:48;;;;;;;1.80;1.70;;;22.80;49.30;;;;;;5073182;28;20450;-87
2022/05/24 02:11:18;;;;;;;1.67;1.57;;;22.90;49.40;;;;;;5047357;28;20551;-86
2022/05/24 02:13:49;;;;;;;3.57;2.10;;;22.60;49.60;;;;;;5053229;28;20828;-87
2022/05/24 02:16:21;;;;;;;2.60;2.10;;;22.60;49.70;;;;;;5069560;28;20475;-87
2022/05/24 02:18:50;;;;;;;1.97;1.87;;;22.40;49.60;;;;;;5071798;28;20493;-86
2022/05/24 02:21:18;;;;;;;3.77;1.70;;;22.30;49.90;;;;;;5069903;28;20431;-86
2022/05/24 02:23:48;;;;;;;2.10;1.90;;;22.40;49.90;;;;;;5043142;28;20451;-87
2022/05/24 02:26:17;;;;;;;1.60;1.50;;;22.50;49.80;;;;;;5073031;28;20499;-87
2022/05/24 02:28:44;;;;;;;1.50;1.40;;;22.60;49.80;;;;;;5070899;28;20924;-87
2022/05/24 02:31:17;;;;;;;2.03;1.90;;;22.60;49.50;;;;;;5090394;28;20810;-87
2022/05/24 02:33:45;;;;;;;2.37;2.17;;;22.80;49.80;;;;;;5063665;28;20440;-87
2022/05/24 02:36:12;;;;;;;2.07;1.70;;;22.80;49.40;;;;;;5079291;28;20471;-87
2022/05/24 02:38:40;;;;;;;1.70;1.60;;;22.80;49.10;;;;;;5069652;28;20481;-88
2022/05/24 02:43:51;;;;;;;1.60;1.50;;;22.70;49.30;;;;;;5074588;28;21123;-87
2022/05/24 02:46:20;;;;;;;3.10;1.70;;;22.80;49.50;;;;;;5088983;28;21070;-87
2022/05/24 02:48:48;;;;;;;2.90;1.83;;;22.80;49.20;;;;;;5054194;28;20439;-87
2022/05/24 02:51:16;;;;;;;1.87;1.77;;;22.60;48.80;;;;;;5090624;28;20537;-87
2022/05/24 02:53:45;;;;;;;1.43;1.33;;;22.60;49.00;;;;;;5055723;28;21223;-87
2022/05/24 02:56:13;;;;;;;1.70;1.40;;;22.60;49.00;;;;;;5061793;28;20600;-87
2022/05/24 02:58:41;;;;;;;2.30;1.60;;;22.40;49.00;;;;;;5078336;28;20456;-87
2022/05/24 03:01:13;;;;;;;3.00;1.93;;;22.30;49.30;;;;;;5058364;28;20432;-87
2022/05/24 03:03:42;;;;;;;1.90;1.80;;;22.20;49.70;;;;;;5057635;28;20470;-86
2022/05/24 03:06:09;;;;;;;1.67;1.57;;;22.10;49.80;;;;;;5050026;28;20801;-86
2022/05/24 03:11:19;;;;;;;2.10;1.90;;;21.80;50.30;;;;;;5038359;28;20435;-87
2022/05/24 03:16:30;;;;;;;3.87;2.20;;;21.80;50.60;;;;;;5046347;28;21029;-86
2022/05/24 03:18:59;;;;;;;1.90;1.80;;;21.70;50.70;;;;;;5069351;28;20442;-87
2022/05/24 03:21:26;;;;;;;2.03;1.93;;;21.70;51.10;;;;;;5075232;28;20555;-87
2022/05/24 03:23:53;;;;;;;1.90;1.80;;;21.70;51.00;;;;;;5079417;28;20446;-86
2022/05/24 03:26:20;;;;;;;2.60;1.53;;;21.70;50.90;;;;;;5081571;28;20944;-86
2022/05/24 03:28:55;;;;;;;2.20;2.00;;;21.60;51.00;;;;;;5071995;28;20443;-89
2022/05/24 03:31:23;;;;;;;1.80;1.70;;;21.60;51.10;;;;;;5075790;28;20530;-87
2022/05/24 03:33:50;;;;;;;1.80;1.70;;;21.50;51.40;;;;;;5089562;28;20583;-87
2022/05/24 03:36:20;;;;;;;1.97;1.87;;;21.50;51.30;;;;;;5070890;28;20555;-87
2022/05/24 03:38:47;;;;;;;1.90;1.80;;;21.50;51.10;;;;;;5062471;28;21282;-87
2022/05/24 03:41:14;;;;;;;2.00;1.90;;;21.60;51.00;;;;;;5072013;28;20447;-86
2022/05/24 03:43:41;;;;;;;1.90;1.80;;;21.60;50.90;;;;;;5063852;28;20462;-85
2022/05/24 03:46:10;;;;;;;1.70;1.60;;;21.70;50.90;;;;;;5062950;28;20467;-86
2022/05/24 03:48:38;;;;;;;1.80;1.70;;;21.70;50.80;;;;;;5060343;28;20534;-87
2022/05/24 03:51:05;;;;;;;2.37;2.17;;;21.70;51.00;;;;;;5060791;28;20490;-87
2022/05/24 03:53:34;;;;;;;2.00;1.80;;;21.80;50.90;;;;;;5081556;28;20444;-86
2022/05/24 03:56:01;;;;;;;2.07;1.93;;;21.80;50.70;;;;;;5066054;28;20478;-86
2022/05/24 03:58:28;;;;;;;2.23;2.03;;;21.90;51.40;;;;;;5085977;28;20440;-87
2022/05/24 04:00:56;;;;;;;2.07;1.97;;;21.90;50.80;;;;;;5056289;28;20435;-87
2022/05/24 04:03:23;;;;;;;1.90;1.70;;;21.90;50.80;;;;;;5073647;28;20534;-86
2022/05/24 04:05:50;;;;;;;2.07;1.87;;;22.00;50.90;;;;;;5061011;28;20501;-87
2022/05/24 04:08:19;;;;;;;2.57;2.37;;;21.90;51.00;;;;;;5064919;28;20443;-85
2022/05/24 04:10:48;;;;;;;1.83;1.73;;;21.90;51.30;;;;;;5071549;28;20459;-86
2022/05/24 04:13:15;;;;;;;2.27;2.10;;;21.90;51.30;;;;;;5052121;28;20485;-86
2022/05/24 04:15:43;;;;;;;2.30;2.10;;;21.90;51.50;;;;;;5087377;28;21411;-86
2022/05/24 04:18:10;;;;;;;2.10;2.00;;;21.70;52.10;;;;;;5086179;28;20554;-87
2022/05/24 04:20:37;;;;;;;2.27;2.07;;;21.80;52.10;;;;;;5068111;28;20566;-87
2022/05/24 04:23:04;;;;;;;2.30;2.20;;;21.70;52.60;;;;;;5087606;28;20443;-87
2022/05/24 04:25:34;;;;;;;3.40;2.40;;;21.70;52.60;;;;;;5086737;28;20471;-87
2022/05/24 04:28:03;;;;;;;2.83;2.63;;;21.70;52.70;;;;;;5089692;28;20500;-88
2022/05/24 04:30:30;;;;;;;2.83;2.10;;;21.60;53.50;;;;;;5061059;28;20459;-88
2022/05/24 04:32:57;;;;;;;4.10;2.67;;;21.70;53.40;;;;;;5040532;28;20442;-88
2022/05/24 04:35:24;;;;;;;3.47;2.37;;;21.70;53.30;;;;;;5072986;28;20471;-87
2022/05/24 04:37:52;;;;;;;2.80;2.60;;;21.90;53.40;;;;;;5068756;28;21315;-87
2022/05/24 04:42:18;;;;;;;2.93;2.63;;;22.10;53.20;;;;;;5086309;28;20532;-88
2022/05/24 04:43:08;;;;;;;3.67;2.87;;;22.00;53.30;;;;;;5072927;28;20448;-87
2022/05/24 04:45:35;;;;;;;3.23;2.50;;;21.90;53.70;;;;;;5059523;28;20471;-86
2022/05/24 04:48:02;;;;;;;3.47;3.00;;;21.90;53.80;;;;;;5089358;28;20984;-87
2022/05/24 04:50:29;;;;;;;3.30;3.00;;;21.80;54.20;;;;;;5072035;28;20494;-87
2022/05/24 04:52:56;;;;;;;3.63;2.63;;;21.80;54.30;;;;;;5060511;28;20448;-88
2022/05/24 04:55:26;;;;;;;4.40;3.97;;;21.80;54.30;;;;;;5087390;28;20467;-87
2022/05/24 04:57:53;;;;;;;3.77;3.47;;;21.80;54.70;;;;;;5053687;28;20543;-87
2022/05/24 05:00:23;;;;;;;3.97;3.67;;;22.00;54.50;;;;;;5053745;28;20443;-88
2022/05/24 05:02:50;;;;;;;5.97;4.20;;;22.00;54.70;;;;;;5090512;28;21245;-87
2022/05/24 05:05:17;;;;;;;4.47;3.93;;;22.20;54.50;;;;;;5067933;28;20485;-87
2022/05/24 05:07:44;;;;;;;5.90;4.03;;;22.20;54.70;;;;;;5068969;28;20937;-86
2022/05/24 05:10:13;;;;;;;5.00;4.33;;;22.40;54.80;;;;;;5067856;28;20563;-87
2022/05/24 05:12:40;;;;;;;9.30;4.30;;;22.40;54.60;;;;;;5088145;28;20814;-87
2022/05/24 05:15:08;;;;;;;4.13;3.83;;;22.40;54.40;;;;;;5053092;28;20811;-88
2022/05/24 05:17:37;;;;;;;4.27;3.50;;;22.30;54.50;;;;;;5041418;28;21379;-87
2022/05/24 05:20:06;;;;;;;4.17;3.77;;;22.30;54.70;;;;;;5049909;28;20473;-88
2022/05/24 05:22:32;;;;;;;4.10;3.70;;;22.30;54.80;;;;;;5059438;28;20455;-87
2022/05/24 05:24:59;;;;;;;4.20;3.70;;;22.30;54.80;;;;;;5066819;28;21037;-88
2022/05/24 05:27:26;;;;;;;7.00;5.40;;;22.40;54.70;;;;;;5069277;28;20446;-87
2022/05/24 05:32:39;;;;;;;5.90;5.20;;;22.60;54.40;;;;;;5069761;28;20464;-88
2022/05/24 05:35:08;;;;;;;6.37;5.50;;;22.70;54.50;;;;;;5057822;28;20459;-87
2022/05/24 05:37:35;;;;;;;5.10;4.70;;;22.60;54.50;;;;;;5088143;28;20458;-87
2022/05/24 05:40:04;;;;;;;5.73;4.93;;;22.40;54.90;;;;;;5066951;28;20830;-88
2022/05/24 05:42:31;;;;;;;6.00;4.93;;;22.40;54.90;;;;;;5070559;28;20974;-88
2022/05/24 05:44:58;;;;;;;4.97;4.50;;;22.30;54.90;;;;;;5052490;28;20448;-87
2022/05/24 05:47:25;;;;;;;4.67;4.27;;;22.10;54.70;;;;;;5049681;28;20461;-86
2022/05/24 05:49:54;;;;;;;5.23;3.70;;;22.20;55.40;;;;;;5051325;28;20452;-87
2022/05/24 05:52:21;;;;;;;4.70;4.30;;;21.90;54.50;;;;;;5071517;28;20451;-88
2022/05/24 05:54:47;;;;;;;4.10;3.73;;;22.00;55.30;;;;;;5084971;28;20439;-87
2022/05/24 05:57:14;;;;;;;5.93;3.80;;;22.30;55.00;;;;;;5060938;28;20477;-87
2022/05/24 05:59:41;;;;;;;3.87;3.57;;;22.30;54.80;;;;;;5085723;28;20455;-89
2022/05/24 06:02:09;;;;;;;3.77;3.43;;;22.20;53.90;;;;;;5066854;28;20456;-88
2022/05/24 06:04:37;;;;;;;5.37;3.30;;;22.30;54.50;;;;;;5045907;28;20475;-89
2022/05/24 06:07:06;;;;;;;3.83;3.53;;;22.50;54.60;;;;;;5086390;28;20483;-86
2022/05/24 06:09:33;;;;;;;3.83;3.37;;;22.80;54.00;;;;;;5066847;28;20455;-88
2022/05/24 06:12:00;;;;;;;3.57;3.23;;;22.70;53.60;;;;;;5051315;28;20478;-87
2022/05/24 06:14:27;;;;;;;2.83;2.60;;;22.70;53.10;;;;;;5067668;28;20457;-87
2022/05/24 06:16:54;;;;;;;4.20;2.60;;;22.90;52.90;;;;;;5069096;28;20541;-87
2022/05/24 06:19:21;;;;;;;2.40;2.20;;;22.80;52.30;;;;;;5070246;28;20466;-87
2022/05/24 06:21:48;;;;;;;2.27;2.00;;;22.70;51.00;;;;;;5061319;28;20452;-86
2022/05/24 06:24:17;;;;;;;3.10;1.90;;;22.60;51.40;;;;;;5053753;28;20533;-89
2022/05/24 06:26:46;;;;;;;2.20;2.10;;;22.70;50.70;;;;;;5053774;28;20474;-89
2022/05/24 06:29:13;;;;;;;1.53;1.43;;;22.80;51.40;;;;;;5058331;28;20444;-87
2022/05/24 06:31:44;;;;;;;1.60;1.50;;;22.70;49.80;;;;;;5080535;28;20775;-86
2022/05/24 06:34:11;;;;;;;1.87;1.77;;;22.90;50.90;;;;;;5059742;28;20633;-87
2022/05/24 06:36:39;;;;;;;6.43;2.00;;;23.00;50.20;;;;;;5057261;28;20467;-87
2022/05/24 06:39:06;;;;;;;1.90;1.70;;;23.10;50.60;;;;;;5071663;28;20458;-87
2022/05/24 06:41:34;;;;;;;4.27;1.57;;;23.00;49.50;;;;;;5041675;28;20497;-88
2022/05/24 06:44:01;;;;;;;1.50;1.40;;;23.10;50.00;;;;;;5063668;28;20813;-88
2022/05/24 06:46:28;;;;;;;1.50;1.40;;;23.20;49.50;;;;;;5042522;28;20592;-88
2022/05/24 06:48:55;;;;;;;3.33;1.37;;;23.20;49.60;;;;;;5064384;28;20987;-89
2022/05/24 06:51:23;;;;;;;1.40;1.30;;;23.40;48.90;;;;;;5066271;28;20585;-88
2022/05/24 06:53:50;;;;;;;1.60;1.30;;;23.30;49.00;;;;;;5075770;28;20603;-89
2022/05/24 06:56:18;;;;;;;1.40;1.30;;;23.30;49.30;;;;;;5053506;28;20489;-87
2022/05/24 06:58:47;;;;;;;1.13;1.03;;;23.50;48.70;;;;;;5076745;28;20867;-88
2022/05/24 07:03:59;;;;;;;1.70;1.47;;;23.90;48.60;;;;;;5049933;28;20447;-90
2022/05/24 07:06:27;;;;;;;1.20;0.97;;;23.90;47.20;;;;;;5086199;28;20474;-88
2022/05/24 07:08:54;;;;;;;2.20;1.00;;;23.80;47.90;;;;;;5070961;28;20456;-88
2022/05/24 07:11:22;;;;;;;1.40;1.03;;;23.60;47.80;;;;;;5070559;28;20466;-89
2022/05/24 07:13:50;;;;;;;1.30;1.20;;;23.50;47.60;;;;;;5069494;28;21687;-89
2022/05/24 07:16:17;;;;;;;2.30;1.40;;;23.60;47.90;;;;;;5085941;28;20481;-89
2022/05/24 07:18:44;;;;;;;1.20;1.10;;;23.70;49.00;;;;;;5046302;28;20864;-89
2022/05/24 07:21:11;;;;;;;5.93;1.20;;;23.40;48.60;;;;;;5042107;28;20453;-88
2022/05/24 07:23:38;;;;;;;4.50;1.10;;;23.20;49.60;;;;;;5066326;28;20450;-88
2022/05/24 07:26:12;;;;;;;1.40;1.30;;;23.20;52.50;;;;;;5064448;28;20481;-88
2022/05/24 07:28:39;;;;;;;2.40;1.37;;;23.10;53.60;;;;;;5049791;28;20536;-88
2022/05/24 07:31:08;;;;;;;3.23;1.40;;;22.70;52.80;;;;;;5057433;28;20459;-89
2022/05/24 07:33:36;;;;;;;1.10;1.00;;;22.30;53.90;;;;;;5044327;28;20482;-87
2022/05/24 07:36:03;;;;;;;1.50;1.40;;;22.00;54.40;;;;;;5046231;28;20459;-89
2022/05/24 07:38:31;;;;;;;1.10;1.00;;;21.90;52.70;;;;;;5070537;28;20937;-88
2022/05/24 07:46:28;;;;;;;1.53;1.13;;;21.50;51.10;;;;;;5089892;28;20472;-88
2022/05/24 07:48:55;;;;;;;2.23;0.90;;;21.60;51.90;;;;;;5062013;28;20900;-87
2022/05/24 07:51:22;;;;;;;1.17;1.00;;;21.50;51.30;;;;;;5087190;28;20467;-88
2022/05/24 07:53:49;;;;;;;0.93;0.90;;;21.40;51.60;;;;;;5054394;28;20439;-89
2022/05/24 07:56:18;;;;;;;1.20;1.10;;;21.50;51.10;;;;;;5091197;28;21261;-89
2022/05/24 07:58:45;;;;;;;4.20;1.23;;;21.40;50.80;;;;;;5069332;28;20444;-87
2022/05/24 08:01:12;;;;;;;1.50;1.27;;;21.20;51.50;;;;;;5051879;28;20470;-90
2022/05/24 08:03:41;;;;;;;2.20;1.30;;;21.20;51.30;;;;;;5057645;28;20455;-90
2022/05/24 08:06:09;;;;;;;2.03;0.90;;;21.20;50.90;;;;;;5058842;28;20483;-88
2022/05/24 08:08:35;;;;;;;3.07;1.10;;;21.30;50.60;;;;;;5071522;28;21052;-89
2022/05/24 08:11:03;;;;;;;1.00;0.90;;;21.30;50.00;;;;;;5070097;28;20461;-88
2022/05/24 08:13:30;;;;;;;1.20;0.97;;;21.30;49.10;;;;;;5063037;28;20459;-87
2022/05/24 08:15:57;;;;;;;1.10;1.00;;;21.30;49.10;;;;;;5056681;28;20466;-88
2022/05/24 08:18:25;;;;;;;1.20;1.00;;;21.50;49.60;;;;;;5073046;28;20442;-89
2022/05/24 08:20:55;;;;;;;7.13;1.10;;;21.60;49.80;;;;;;5090342;28;20473;-89
2022/05/24 08:23:23;;;;;;;1.20;1.10;;;21.70;49.30;;;;;;5066988;28;20435;-90
2022/05/24 08:25:50;;;;;;;1.07;0.97;;;21.70;49.30;;;;;;5056297;28;20462;-87
2022/05/24 08:28:17;;;;;;;2.13;0.87;;;21.80;49.10;;;;;;5092657;28;20981;-88
2022/05/24 08:30:44;;;;;;;0.90;0.80;;;21.90;48.80;;;;;;5091002;28;20446;-88
2022/05/24 08:33:12;;;;;;;1.30;0.70;;;22.00;47.80;;;;;;5074517;28;20655;-89
2022/05/24 08:35:40;;;;;;;2.80;0.90;;;21.80;46.60;;;;;;5035499;28;20459;-88
2022/05/24 08:38:09;;;;;;;1.03;0.90;;;21.70;47.20;;;;;;5059823;28;20888;-88
2022/05/24 08:40:37;;;;;;;1.30;1.00;;;21.70;46.10;;;;;;5054247;28;20975;-88
2022/05/24 08:43:37;;;;;;;1.30;1.20;;;21.60;45.80;;;;;;5053410;28;20452;-87
2022/05/24 08:49:00;;;;;;;1.00;0.90;;;21.30;46.20;;;;;;5078640;28;20748;-89
2022/05/24 08:51:29;;;;;;;2.17;1.03;;;21.30;46.90;;;;;;5085912;28;20474;-87
2022/05/24 08:54:01;;;;;;;1.10;0.90;;;21.10;48.00;;;;;;5071120;28;20962;-88
2022/05/24 08:56:32;;;;;;;1.43;0.83;;;21.20;48.70;;;;;;5055839;28;21355;-86
2022/05/24 08:59:05;;;;;;;8.00;1.03;;;21.20;48.20;;;;;;5085950;28;20450;-89
2022/05/24 09:01:33;;;;;;;1.00;0.90;;;21.20;46.10;;;;;;5067280;28;20475;-90
2022/05/24 09:04:00;;;;;;;2.10;1.00;;;21.10;45.20;;;;;;5076629;28;20462;-90
2022/05/24 09:06:38;;;;;;;0.90;0.80;;;20.90;45.80;;;;;;5067218;28;20485;-85
2022/05/24 09:09:26;;;;;;;3.43;1.20;;;20.90;47.10;;;;;;5086618;28;21045;-88
2022/05/24 09:12:04;;;;;;;1.20;0.90;;;21.00;47.60;;;;;;5054105;28;20839;-87
2022/05/24 09:14:40;;;;;;;2.50;1.00;;;21.30;46.60;;;;;;5079128;28;20450;-88
2022/05/24 09:17:21;;;;;;;1.50;1.00;;;21.30;45.50;;;;;;5078648;28;20471;-86
2022/05/24 09:19:47;;;;;;;3.37;1.10;;;21.20;46.20;;;;;;5069075;28;20436;-87
2022/05/24 09:22:14;;;;;;;5.93;1.07;;;21.20;46.30;;;;;;5061413;28;20450;-87
2022/05/24 09:24:46;;;;;;;1.20;0.90;;;21.40;46.40;;;;;;5058913;28;20542;-86
2022/05/24 09:27:16;;;;;;;4.73;1.10;;;21.70;46.20;;;;;;5066795;28;20506;-87
2022/05/24 09:30:08;;;;;;;2.87;1.03;;;22.10;44.80;;;;;;5056891;28;20446;-86
2022/05/24 09:32:38;;;;;;;2.07;0.87;;;22.00;45.70;;;;;;5068115;28;20501;-86
2022/05/24 09:35:22;;;;;;;1.93;0.90;;;22.30;44.50;;;;;;5084799;28;20435;-87
2022/05/24 09:38:08;;;;;;;1.37;1.10;;;22.50;44.50;;;;;;5085934;28;20820;-86
2022/05/24 09:40:48;;;;;;;1.20;1.00;;;22.60;44.70;;;;;;5070165;28;20478;-86
2022/05/24 09:43:19;;;;;;;1.00;0.90;;;22.60;43.80;;;;;;5061904;28;21305;-89
2022/05/24 09:45:52;;;;;;;1.20;0.90;;;22.60;44.60;;;;;;5085199;28;20492;-87
2022/05/24 09:48:24;;;;;;;8.93;1.20;;;22.70;44.80;;;;;;5049539;28;20436;-89
2022/05/24 09:50:53;;;;;;;1.67;0.90;;;22.80;45.40;;;;;;5068844;28;20808;-86
2022/05/24 09:53:22;;;;;;;3.50;0.97;;;23.10;44.10;;;;;;5067891;28;20455;-86
2022/05/24 09:55:54;;;;;;;1.77;0.90;;;22.70;43.70;;;;;;5083416;28;20478;-86
2022/05/24 09:58:28;;;;;;;1.33;1.13;;;22.90;43.70;;;;;;5072934;28;20493;-88
2022/05/24 10:00:58;;;;;;;3.00;1.13;;;22.90;43.50;;;;;;5065360;28;20837;-88
2022/05/24 10:03:29;;;;;;;1.53;0.87;;;22.90;43.80;;;;;;5071513;28;20455;-86
2022/05/24 10:06:10;;;;;;;1.20;1.10;;;23.10;44.10;;;;;;5042377;27;20487;-88
2022/05/24 10:08:39;;;;;;;6.40;1.90;;;23.30;44.40;;;;;;5065134;28;20446;-86
2022/05/24 10:11:16;;;;;;;0.90;0.90;;;23.30;44.00;;;;;;5053857;28;20460;-86
2022/05/24 10:13:51;;;;;;;0.97;0.87;;;23.60;42.50;;;;;;5068440;28;20445;-88
2022/05/24 10:16:25;;;;;;;1.20;1.10;;;23.40;40.40;;;;;;5088846;28;20964;-87
2022/05/24 10:19:08;;;;;;;1.00;0.90;;;23.40;42.40;;;;;;5072400;28;20447;-88
2022/05/24 10:21:40;;;;;;;1.93;0.90;;;23.50;42.60;;;;;;5054653;28;20458;-88
2022/05/24 10:24:24;;;;;;;0.93;0.87;;;23.50;41.00;;;;;;5087793;28;20517;-87
2022/05/24 10:26:59;;;;;;;2.60;0.80;;;23.50;41.50;;;;;;5066045;28;20486;-87
2022/05/24 10:29:37;;;;;;;2.13;1.27;;;23.40;39.10;;;;;;5050900;28;20447;-90
2022/05/24 10:32:08;;;;;;;0.93;0.87;;;23.70;39.90;;;;;;5056676;28;20507;-85
2022/05/24 10:40:28;;;;;;;1.17;1.00;;;24.20;39.00;;;;;;5074956;28;20477;-87
2022/05/24 10:43:11;;;;;;;1.10;1.00;;;23.50;39.10;;;;;;5050381;28;21324;-87
2022/05/24 10:45:51;;;;;;;7.03;1.03;;;23.40;40.70;;;;;;5049619;28;20479;-87
2022/05/24 10:48:29;;;;;;;1.33;1.03;;;23.40;41.30;;;;;;5083904;28;20951;-87
2022/05/24 10:51:01;;;;;;;1.43;1.03;;;23.20;41.40;;;;;;5069092;28;20503;-87
2022/05/24 10:53:35;;;;;;;1.90;1.30;;;23.20;42.10;;;;;;5083115;28;20490;-86
2022/05/24 10:56:07;;;;;;;1.73;0.90;;;23.20;40.30;;;;;;5082753;28;20459;-88
2022/05/24 10:58:38;;;;;;;0.70;0.70;;;23.00;41.10;;;;;;5041563;28;20455;-85
2022/05/24 11:01:09;;;;;;;0.97;0.80;;;23.30;41.00;;;;;;5065266;28;20830;-87
2022/05/24 11:03:43;;;;;;;1.00;0.90;;;24.00;40.90;;;;;;5065649;28;20493;-87
2022/05/24 11:06:17;;;;;;;1.63;0.70;;;24.60;37.50;;;;;;5057878;28;20479;-86
2022/05/24 11:08:50;;;;;;;2.60;0.80;;;24.70;37.70;;;;;;5069889;28;20529;-87
2022/05/24 11:11:31;;;;;;;2.30;2.10;;;25.10;36.90;;;;;;5071905;28;20630;-87
2022/05/24 11:14:07;;;;;;;1.10;0.90;;;24.50;37.00;;;;;;5068017;28;20442;-85
2022/05/24 11:16:39;;;;;;;1.10;0.80;;;24.70;36.90;;;;;;5050843;28;20472;-87
2022/05/24 11:19:10;;;;;;;1.63;0.80;;;24.70;37.00;;;;;;5083077;28;20439;-85
2022/05/24 11:21:42;;;;;;;0.80;0.70;;;24.80;36.90;;;;;;5086125;28;21335;-85
2022/05/24 11:24:17;;;;;;;1.03;0.83;;;24.90;37.70;;;;;;5084335;28;20451;-85
2022/05/24 11:26:50;;;;;;;1.40;0.90;;;25.30;38.80;;;;;;5085144;28;20481;-89
2022/05/24 11:29:25;;;;;;;0.80;0.80;;;25.40;35.30;;;;;;5085395;28;20479;-87
2022/05/24 11:31:58;;;;;;;2.30;0.70;;;25.10;35.20;;;;;;5084589;28;20553;-87
2022/05/24 11:34:27;;;;;;;1.20;0.70;;;25.10;35.40;;;;;;5085873;28;20443;-87
2022/05/24 11:37:04;;;;;;;1.87;0.77;;;25.40;37.30;;;;;;5085485;28;20467;-87
2022/05/24 11:39:34;;;;;;;1.10;0.80;;;25.70;34.50;;;;;;5051068;28;20459;-86
2022/05/24 11:42:29;;;;;;;1.03;0.83;;;25.80;33.30;;;;;;5069627;28;20460;-87
2022/05/24 11:44:59;;;;;;;0.83;0.67;;;25.80;33.60;;;;;;5065031;28;21097;-86
2022/05/24 11:48:01;;;;;;;0.90;0.80;;;26.10;33.40;;;;;;5084153;28;20436;-87
2022/05/24 11:50:40;;;;;;;0.83;0.70;;;26.30;33.00;;;;;;5067835;28;20450;-87
2022/05/24 11:53:08;;;;;;;1.20;1.10;;;26.30;31.40;;;;;;5085573;28;20464;-88
2022/05/24 11:55:44;;;;;;;1.87;0.73;;;26.20;30.90;;;;;;5076071;28;20862;-86
2022/05/24 11:58:41;;;;;;;0.90;0.80;;;25.90;30.60;;;;;;5067397;28;20453;-87
2022/05/24 12:01:31;;;;;;;1.00;0.90;;;25.60;30.80;;;;;;5053827;28;20436;-86
2022/05/24 12:10:52;;;;;;;1.30;0.80;;;25.10;32.20;;;;;;5089277;28;20488;-86
2022/05/24 12:13:51;;;;;;;2.40;0.90;;;25.00;34.70;;;;;;5071867;28;20471;-87
2022/05/24 12:16:40;;;;;;;1.00;0.80;;;25.60;34.90;;;;;;5056721;28;20463;-89
2022/05/24 12:19:09;;;;;;;4.13;0.90;;;25.70;32.10;;;;;;5055080;28;21153;-87
2022/05/24 12:21:42;;;;;;;0.90;0.80;;;25.30;31.10;;;;;;5061984;28;20443;-86
2022/05/24 12:24:32;;;;;;;0.80;0.80;;;24.90;32.00;;;;;;5070089;28;20448;-86
2022/05/24 12:27:31;;;;;;;2.60;1.77;;;25.00;34.90;;;;;;5089293;28;20470;-87
2022/05/24 12:30:01;;;;;;;1.27;0.70;;;25.20;33.60;;;;;;5069045;28;20562;-87
2022/05/24 12:32:36;;;;;;;0.90;0.80;;;25.70;34.90;;;;;;5053642;28;20856;-87
2022/05/24 12:35:07;;;;;;;2.10;1.30;;;25.90;34.40;;;;;;5068202;28;20434;-87
2022/05/24 12:37:36;;;;;;;1.00;0.80;;;26.10;32.90;;;;;;5057369;28;20452;-88
2022/05/24 12:40:09;;;;;;;2.30;1.10;;;26.30;33.20;;;;;;5069662;28;20455;-89
2022/05/24 12:42:43;;;;;;;1.00;0.77;;;26.40;33.10;;;;;;5074491;28;20446;-88
2022/05/24 12:45:13;;;;;;;0.80;0.70;;;26.40;33.80;;;;;;5089764;28;20440;-87
2022/05/24 12:47:42;;;;;;;0.90;0.70;;;26.10;34.60;;;;;;5073622;28;20439;-86
2022/05/24 12:50:25;;;;;;;0.80;0.77;;;25.90;35.40;;;;;;5070030;28;20699;-86
2022/05/24 12:52:58;;;;;;;2.00;0.90;;;25.90;34.90;;;;;;5068667;28;21815;-86
2022/05/24 12:58:12;;;;;;;2.70;1.20;;;25.60;35.00;;;;;;5037680;28;20434;-88
2022/05/24 13:00:40;;;;;;;1.53;0.90;;;25.30;35.20;;;;;;5087006;28;20447;-85
2022/05/24 13:03:08;;;;;;;1.10;0.87;;;25.30;36.00;;;;;;5086759;28;20472;-87
2022/05/24 13:05:53;;;;;;;1.07;0.97;;;25.30;35.10;;;;;;5056091;27;20482;-87
2022/05/24 13:08:21;;;;;;;1.43;1.03;;;25.20;35.40;;;;;;5069722;28;20538;-87
2022/05/24 13:10:49;;;;;;;1.13;0.90;;;25.50;35.80;;;;;;5069926;28;20444;-84
2022/05/24 13:13:19;;;;;;;0.80;0.80;;;25.70;36.00;;;;;;5060866;28;20597;-87
2022/05/24 13:15:50;;;;;;;1.23;1.03;;;25.50;33.80;;;;;;5047860;28;20892;-87
2022/05/24 13:18:21;;;;;;;1.20;0.97;;;25.30;34.90;;;;;;5062678;28;20575;-88
2022/05/24 13:20:50;;;;;;;1.00;0.87;;;25.30;33.90;;;;;;5086053;28;20450;-86
2022/05/24 13:23:24;;;;;;;0.80;0.70;;;25.70;35.70;;;;;;5071602;28;20479;-87
2022/05/24 13:25:54;;;;;;;2.27;1.10;;;26.10;33.20;;;;;;5070768;28;20477;-86
2022/05/24 13:28:39;;;;;;;2.07;0.87;;;26.20;30.90;;;;;;5073028;28;20456;-87
2022/05/24 13:33:59;;;;;;;1.00;0.83;;;26.20;32.20;;;;;;5070219;28;20460;-87
2022/05/24 13:36:29;;;;;;;1.90;0.80;;;25.90;32.40;;;;;;5089075;28;20478;-88
2022/05/24 13:39:15;;;;;;;2.20;0.80;;;25.70;32.50;;;;;;5058900;28;20542;-87
2022/05/24 13:41:45;;;;;;;2.70;1.00;;;25.60;32.90;;;;;;5051468;28;20451;-88
2022/05/24 13:44:23;;;;;;;3.43;1.00;;;25.40;32.90;;;;;;5070685;28;20444;-88
2022/05/24 13:46:55;;;;;;;2.27;0.80;;;25.40;33.20;;;;;;5056323;28;20463;-87
2022/05/24 13:49:29;;;;;;;0.87;0.87;;;25.20;32.40;;;;;;5060163;28;20440;-87